sensor_id;sensor_type;location;lat;lon;timestamp;pressure;altitude;pressure_sealevel;temperature;humidity
64679;BME280;51094;53.864;27.676;2023-05-24T00:02:10;99198.41;;;14.55;53.29
64679;BME280;51094;53.864;27.676;2023-05-24T00:04:40;99216.47;;;14.68;52.75
64679;BME280;51094;53.864;27.676;2023-05-24T00:07:08;99218.00;;;14.71;53.44
64679;BME280;51094;53.864;27.676;2023-05-24T00:09:34;99174.44;;;14.50;52.98
64679;BME280;51094;53.864;27.676;2023-05-24T00:12:02;99167.63;;;14.38;53.28
64679;BME280;51094;53.864;27.676;2023-05-24T00:14:29;99207.41;;;14.72;53.29
64679;BME280;51094;53.864;27.676;2023-05-24T00:16:56;99210.00;;;14.72;53.47
64679;BME280;51094;53.864;27.676;2023-05-24T00:19:23;99037.16;;;13.66;53.33
64679;BME280;51094;53.864;27.676;2023-05-24T00:21:50;99197.19;;;14.59;53.48
64679;BME280;51094;53.864;27.676;2023-05-24T00:24:17;99206.56;;;14.72;53.69
64679;BME280;51094;53.864;27.676;2023-05-24T00:26:44;99098.16;;;13.95;53.49
64679;BME280;51094;53.864;27.676;2023-05-24T00:29:11;99183.78;;;14.43;54.02
64679;BME280;51094;53.864;27.676;2023-05-24T00:31:38;99129.13;;;14.00;53.77
64679;BME280;51094;53.864;27.676;2023-05-24T00:34:05;99210.09;;;14.51;54.22
64679;BME280;51094;53.864;27.676;2023-05-24T00:36:32;99111.63;;;13.91;54.30
64679;BME280;51094;53.864;27.676;2023-05-24T00:38:59;99137.38;;;13.95;54.58
64679;BME280;51094;53.864;27.676;2023-05-24T00:41:26;99203.88;;;14.43;54.66
64679;BME280;51094;53.864;27.676;2023-05-24T00:43:53;99206.09;;;14.47;54.39
64679;BME280;51094;53.864;27.676;2023-05-24T00:46:23;99256.75;;;14.46;54.74
64679;BME280;51094;53.864;27.676;2023-05-24T00:48:53;99200.53;;;14.41;54.85
64679;BME280;51094;53.864;27.676;2023-05-24T00:51:20;99202.84;;;14.34;54.80
64679;BME280;51094;53.864;27.676;2023-05-24T00:53:48;99121.91;;;13.73;54.95
64679;BME280;51094;53.864;27.676;2023-05-24T00:56:16;99176.06;;;14.02;55.35
64679;BME280;51094;53.864;27.676;2023-05-24T00:58:43;99179.09;;;14.07;55.60
64679;BME280;51094;53.864;27.676;2023-05-24T01:01:10;99202.81;;;14.15;55.64
64679;BME280;51094;53.864;27.676;2023-05-24T01:03:38;99128.69;;;13.55;56.06
64679;BME280;51094;53.864;27.676;2023-05-24T01:06:07;99240.97;;;13.66;56.23
64679;BME280;51094;53.864;27.676;2023-05-24T01:13:58;99154.34;;;13.50;56.98
64679;BME280;51094;53.864;27.676;2023-05-24T01:24:54;99200.63;;;13.89;56.91
64679;BME280;51094;53.864;27.676;2023-05-24T01:27:24;99191.94;;;13.79;56.87
64679;BME280;51094;53.864;27.676;2023-05-24T01:29:52;98914.47;;;12.03;56.17
64679;BME280;51094;53.864;27.676;2023-05-24T01:32:20;99155.75;;;13.54;56.73
64679;BME280;51094;53.864;27.676;2023-05-24T01:34:47;99141.97;;;13.42;56.86
64679;BME280;51094;53.864;27.676;2023-05-24T01:37:15;99196.84;;;13.73;57.05
64679;BME280;51094;53.864;27.676;2023-05-24T01:39:41;99200.28;;;13.73;56.89
64679;BME280;51094;53.864;27.676;2023-05-24T01:50:36;99208.78;;;13.65;57.56
64679;BME280;51094;53.864;27.676;2023-05-24T01:53:08;99117.53;;;13.11;57.73
64679;BME280;51094;53.864;27.676;2023-05-24T01:55:39;99085.88;;;12.95;57.72
64679;BME280;51094;53.864;27.676;2023-05-24T01:58:08;99203.47;;;13.56;57.51
64679;BME280;51094;53.864;27.676;2023-05-24T02:00:37;99207.19;;;13.53;58.13
64679;BME280;51094;53.864;27.676;2023-05-24T02:03:05;99071.72;;;12.77;57.92
64679;BME280;51094;53.864;27.676;2023-05-24T02:05:32;99115.81;;;13.00;57.96
64679;BME280;51094;53.864;27.676;2023-05-24T02:08:04;99149.22;;;13.18;58.26
64679;BME280;51094;53.864;27.676;2023-05-24T02:10:31;99146.75;;;13.16;58.16
64679;BME280;51094;53.864;27.676;2023-05-24T02:12:58;99212.03;;;13.58;58.59
64679;BME280;51094;53.864;27.676;2023-05-24T02:15:25;99101.06;;;12.90;58.21
64679;BME280;51094;53.864;27.676;2023-05-24T02:17:56;99196.81;;;13.42;58.53
64679;BME280;51094;53.864;27.676;2023-05-24T02:20:23;99177.91;;;13.29;58.97
64679;BME280;51094;53.864;27.676;2023-05-24T02:22:50;99178.72;;;13.29;58.79
64679;BME280;51094;53.864;27.676;2023-05-24T02:25:17;99112.72;;;12.86;59.20
64679;BME280;51094;53.864;27.676;2023-05-24T02:27:44;99083.34;;;12.73;59.08
64679;BME280;51094;53.864;27.676;2023-05-24T02:30:12;99172.78;;;13.27;59.14
64679;BME280;51094;53.864;27.676;2023-05-24T02:32:39;99181.47;;;13.28;59.57
64679;BME280;51094;53.864;27.676;2023-05-24T02:35:06;99178.16;;;13.26;59.44
64679;BME280;51094;53.864;27.676;2023-05-24T02:37:33;99202.59;;;13.46;59.41
64679;BME280;51094;53.864;27.676;2023-05-24T02:40:00;99219.22;;;13.45;59.75
64679;BME280;51094;53.864;27.676;2023-05-24T02:42:27;99204.94;;;13.49;59.28
64679;BME280;51094;53.864;27.676;2023-05-24T02:44:54;99165.47;;;13.21;59.50
64679;BME280;51094;53.864;27.676;2023-05-24T02:47:21;99115.53;;;12.94;59.64
64679;BME280;51094;53.864;27.676;2023-05-24T02:49:48;99123.03;;;13.08;59.98
64679;BME280;51094;53.864;27.676;2023-05-24T02:52:15;99024.31;;;12.51;59.52
64679;BME280;51094;53.864;27.676;2023-05-24T02:54:50;99201.06;;;13.64;59.84
64679;BME280;51094;53.864;27.676;2023-05-24T02:57:18;99180.47;;;13.50;59.57
64679;BME280;51094;53.864;27.676;2023-05-24T02:59:45;99094.53;;;12.95;59.90
64679;BME280;51094;53.864;27.676;2023-05-24T03:02:12;99200.41;;;13.51;59.83
64679;BME280;51094;53.864;27.676;2023-05-24T03:04:40;99201.19;;;13.62;60.29
64679;BME280;51094;53.864;27.676;2023-05-24T03:07:10;99178.38;;;13.44;60.16
64679;BME280;51094;53.864;27.676;2023-05-24T03:09:37;99156.13;;;13.40;60.33
64679;BME280;51094;53.864;27.676;2023-05-24T03:12:04;99199.16;;;13.66;60.32
64679;BME280;51094;53.864;27.676;2023-05-24T03:14:33;99227.13;;;13.75;60.44
64679;BME280;51094;53.864;27.676;2023-05-24T03:16:59;99204.50;;;13.85;60.04
64679;BME280;51094;53.864;27.676;2023-05-24T03:19:27;99199.25;;;13.85;60.10
64679;BME280;51094;53.864;27.676;2023-05-24T03:21:53;99203.81;;;13.93;60.08
64679;BME280;51094;53.864;27.676;2023-05-24T03:24:20;99148.53;;;13.67;59.90
64679;BME280;51094;53.864;27.676;2023-05-24T03:26:47;99197.94;;;14.01;59.96
64679;BME280;51094;53.864;27.676;2023-05-24T03:29:15;99202.91;;;14.04;59.84
64679;BME280;51094;53.864;27.676;2023-05-24T03:31:43;99201.53;;;14.09;59.95
64679;BME280;51094;53.864;27.676;2023-05-24T03:34:10;99200.31;;;14.13;60.23
64679;BME280;51094;53.864;27.676;2023-05-24T03:36:38;99208.72;;;14.17;60.20
64679;BME280;51094;53.864;27.676;2023-05-24T03:39:05;99183.06;;;14.01;60.40
64679;BME280;51094;53.864;27.676;2023-05-24T03:41:47;99101.13;;;12.79;60.21
64679;BME280;51094;53.864;27.676;2023-05-24T03:44:14;99188.31;;;14.01;60.38
64679;BME280;51094;53.864;27.676;2023-05-24T03:46:41;99187.66;;;14.09;60.45
64679;BME280;51094;53.864;27.676;2023-05-24T03:49:08;99213.31;;;14.34;60.73
64679;BME280;51094;53.864;27.676;2023-05-24T03:51:36;99225.63;;;14.43;60.60
64679;BME280;51094;53.864;27.676;2023-05-24T03:54:03;99182.44;;;14.18;60.77
64679;BME280;51094;53.864;27.676;2023-05-24T03:56:30;99234.69;;;14.39;60.33
64679;BME280;51094;53.864;27.676;2023-05-24T03:58:57;99162.47;;;14.08;60.16
64679;BME280;51094;53.864;27.676;2023-05-24T04:01:26;99226.66;;;14.61;60.31
64679;BME280;51094;53.864;27.676;2023-05-24T04:04:00;99118.28;;;14.05;59.56
64679;BME280;51094;53.864;27.676;2023-05-24T04:06:28;99170.44;;;14.46;59.38
64679;BME280;51094;53.864;27.676;2023-05-24T04:08:58;99225.84;;;14.90;59.06
64679;BME280;51094;53.864;27.676;2023-05-24T04:11:25;99216.50;;;14.97;58.48
64679;BME280;51094;53.864;27.676;2023-05-24T04:13:54;99144.84;;;14.59;58.43
64679;BME280;51094;53.864;27.676;2023-05-24T04:16:23;99169.34;;;14.78;58.58
64679;BME280;51094;53.864;27.676;2023-05-24T04:18:50;99228.06;;;15.23;58.27
64679;BME280;51094;53.864;27.676;2023-05-24T04:21:18;99232.06;;;15.27;58.20
64679;BME280;51094;53.864;27.676;2023-05-24T04:23:45;99211.41;;;15.15;58.16
64679;BME280;51094;53.864;27.676;2023-05-24T04:26:13;99227.94;;;15.35;58.13
64679;BME280;51094;53.864;27.676;2023-05-24T04:28:41;99222.53;;;15.46;58.19
64679;BME280;51094;53.864;27.676;2023-05-24T04:31:08;99238.78;;;15.69;57.87
64679;BME280;51094;53.864;27.676;2023-05-24T04:33:35;99244.31;;;15.75;57.23
64679;BME280;51094;53.864;27.676;2023-05-24T04:36:04;99245.97;;;15.76;57.21
64679;BME280;51094;53.864;27.676;2023-05-24T04:38:32;99249.66;;;15.83;56.91
64679;BME280;51094;53.864;27.676;2023-05-24T04:41:00;99251.44;;;15.92;57.04
64679;BME280;51094;53.864;27.676;2023-05-24T04:43:27;99250.59;;;16.02;56.70
64679;BME280;51094;53.864;27.676;2023-05-24T04:45:54;99219.72;;;15.86;56.52
64679;BME280;51094;53.864;27.676;2023-05-24T04:48:22;99281.44;;;16.17;56.48
64679;BME280;51094;53.864;27.676;2023-05-24T04:50:50;99260.97;;;16.30;56.18
64679;BME280;51094;53.864;27.676;2023-05-24T04:53:19;99256.66;;;16.39;55.61
64679;BME280;51094;53.864;27.676;2023-05-24T04:55:47;99238.88;;;16.33;55.81
64679;BME280;51094;53.864;27.676;2023-05-24T04:58:14;99259.16;;;16.58;55.36
64679;BME280;51094;53.864;27.676;2023-05-24T05:00:42;99215.94;;;16.35;55.32
64679;BME280;51094;53.864;27.676;2023-05-24T05:03:09;99274.06;;;16.68;55.26
64679;BME280;51094;53.864;27.676;2023-05-24T05:05:37;99278.75;;;16.74;55.13
64679;BME280;51094;53.864;27.676;2023-05-24T05:08:04;99258.50;;;16.84;55.21
64679;BME280;51094;53.864;27.676;2023-05-24T05:10:31;99208.72;;;16.65;54.83
64679;BME280;51094;53.864;27.676;2023-05-24T05:12:58;99246.50;;;16.99;54.47
64679;BME280;51094;53.864;27.676;2023-05-24T05:15:25;99264.09;;;17.16;54.65
64679;BME280;51094;53.864;27.676;2023-05-24T05:17:52;99251.09;;;17.15;54.51
64679;BME280;51094;53.864;27.676;2023-05-24T05:20:19;99272.28;;;17.31;54.29
64679;BME280;51094;53.864;27.676;2023-05-24T05:22:47;99246.88;;;17.22;54.17
64679;BME280;51094;53.864;27.676;2023-05-24T05:25:14;99231.44;;;17.19;53.54
64679;BME280;51094;53.864;27.676;2023-05-24T05:27:42;99266.19;;;17.66;53.29
64679;BME280;51094;53.864;27.676;2023-05-24T05:30:10;99268.75;;;17.84;53.13
64679;BME280;51094;53.864;27.676;2023-05-24T05:32:37;99237.75;;;17.52;52.95
64679;BME280;51094;53.864;27.676;2023-05-24T05:35:04;99276.50;;;18.11;52.55
64679;BME280;51094;53.864;27.676;2023-05-24T05:37:31;99218.09;;;17.82;51.49
64679;BME280;51094;53.864;27.676;2023-05-24T05:39:58;99240.47;;;18.12;51.61
64679;BME280;51094;53.864;27.676;2023-05-24T05:42:25;99098.47;;;17.34;51.00
64679;BME280;51094;53.864;27.676;2023-05-24T05:44:52;99283.81;;;18.59;50.67
64679;BME280;51094;53.864;27.676;2023-05-24T05:47:19;99220.16;;;18.30;50.27
64679;BME280;51094;53.864;27.676;2023-05-24T05:49:46;99274.19;;;18.84;50.14
64679;BME280;51094;53.864;27.676;2023-05-24T05:52:12;99261.53;;;18.88;49.93
64679;BME280;51094;53.864;27.676;2023-05-24T05:54:39;99276.88;;;19.09;49.20
64679;BME280;51094;53.864;27.676;2023-05-24T05:57:06;99216.72;;;18.80;49.54
64679;BME280;51094;53.864;27.676;2023-05-24T05:59:36;99281.69;;;19.38;49.45
64679;BME280;51094;53.864;27.676;2023-05-24T06:02:05;99236.19;;;19.11;48.70
64679;BME280;51094;53.864;27.676;2023-05-24T06:04:33;99273.47;;;19.57;48.12
64679;BME280;51094;53.864;27.676;2023-05-24T06:07:00;99283.03;;;19.66;46.68
64679;BME280;51094;53.864;27.676;2023-05-24T06:09:28;99288.16;;;19.76;47.41
64679;BME280;51094;53.864;27.676;2023-05-24T06:11:55;99219.69;;;19.50;47.36
64679;BME280;51094;53.864;27.676;2023-05-24T06:14:21;99285.63;;;20.07;47.38
64679;BME280;51094;53.864;27.676;2023-05-24T06:16:51;99278.34;;;20.17;46.37
64679;BME280;51094;53.864;27.676;2023-05-24T06:19:20;99221.78;;;19.95;46.56
64679;BME280;51094;53.864;27.676;2023-05-24T06:21:47;99247.31;;;20.19;46.21
64679;BME280;51094;53.864;27.676;2023-05-24T06:24:18;99295.69;;;20.67;45.84
64679;BME280;51094;53.864;27.676;2023-05-24T06:26:50;99266.47;;;20.68;45.44
64679;BME280;51094;53.864;27.676;2023-05-24T06:29:18;99264.13;;;20.73;44.56
64679;BME280;51094;53.864;27.676;2023-05-24T06:31:47;99289.06;;;21.02;44.45
64679;BME280;51094;53.864;27.676;2023-05-24T06:34:15;99244.34;;;20.92;44.46
64679;BME280;51094;53.864;27.676;2023-05-24T06:36:43;99298.09;;;21.38;42.63
64679;BME280;51094;53.864;27.676;2023-05-24T06:39:13;99252.13;;;21.16;43.20
64679;BME280;51094;53.864;27.676;2023-05-24T06:41:42;99286.53;;;21.39;42.39
64679;BME280;51094;53.864;27.676;2023-05-24T06:44:09;99268.72;;;21.33;42.50
64679;BME280;51094;53.864;27.676;2023-05-24T06:46:36;99247.09;;;21.30;42.34
64679;BME280;51094;53.864;27.676;2023-05-24T06:49:02;99261.84;;;21.47;42.10
64679;BME280;51094;53.864;27.676;2023-05-24T06:51:30;99287.44;;;21.69;41.75
64679;BME280;51094;53.864;27.676;2023-05-24T06:53:59;99293.47;;;21.78;42.42
64679;BME280;51094;53.864;27.676;2023-05-24T06:56:26;99259.25;;;21.76;40.13
64679;BME280;51094;53.864;27.676;2023-05-24T06:58:55;99271.59;;;21.84;39.51
64679;BME280;51094;53.864;27.676;2023-05-24T07:01:22;99230.31;;;21.60;40.77
64679;BME280;51094;53.864;27.676;2023-05-24T07:03:49;99290.09;;;22.21;40.22
64679;BME280;51094;53.864;27.676;2023-05-24T07:06:16;99301.34;;;22.38;39.61
64679;BME280;51094;53.864;27.676;2023-05-24T07:08:44;99270.56;;;22.37;39.32
64679;BME280;51094;53.864;27.676;2023-05-24T07:11:10;99289.88;;;22.67;39.65
64679;BME280;51094;53.864;27.676;2023-05-24T07:13:38;99279.66;;;22.79;39.03
64679;BME280;51094;53.864;27.676;2023-05-24T07:16:05;99299.91;;;23.01;38.54
64679;BME280;51094;53.864;27.676;2023-05-24T07:18:32;99293.13;;;22.99;37.40
64679;BME280;51094;53.864;27.676;2023-05-24T07:20:59;99293.31;;;22.97;37.28
64679;BME280;51094;53.864;27.676;2023-05-24T07:23:26;99235.09;;;22.38;37.25
64679;BME280;51094;53.864;27.676;2023-05-24T07:25:53;99276.22;;;22.34;37.26
64679;BME280;51094;53.864;27.676;2023-05-24T07:28:20;99295.50;;;22.28;38.12
64679;BME280;51094;53.864;27.676;2023-05-24T07:30:47;99284.16;;;22.05;38.11
64679;BME280;51094;53.864;27.676;2023-05-24T07:33:14;99210.59;;;21.63;38.64
64679;BME280;51094;53.864;27.676;2023-05-24T07:35:42;99297.03;;;22.22;37.34
64679;BME280;51094;53.864;27.676;2023-05-24T07:38:11;99223.47;;;21.80;35.98
64679;BME280;51094;53.864;27.676;2023-05-24T07:40:38;99231.09;;;21.98;35.66
64679;BME280;51094;53.864;27.676;2023-05-24T07:43:05;99148.81;;;21.55;35.18
64679;BME280;51094;53.864;27.676;2023-05-24T07:45:32;99290.97;;;22.73;34.15
64679;BME280;51094;53.864;27.676;2023-05-24T07:47:59;99287.06;;;22.54;33.28
64679;BME280;51094;53.864;27.676;2023-05-24T07:50:26;99268.53;;;22.39;35.16
64679;BME280;51094;53.864;27.676;2023-05-24T07:52:57;99123.19;;;21.85;33.64
64679;BME280;51094;53.864;27.676;2023-05-24T07:55:24;99298.31;;;23.07;33.93
64679;BME280;51094;53.864;27.676;2023-05-24T07:57:52;99253.06;;;23.08;34.08
64679;BME280;51094;53.864;27.676;2023-05-24T08:00:19;99295.97;;;23.76;33.79
64679;BME280;51094;53.864;27.676;2023-05-24T08:02:47;99268.91;;;23.94;32.37
64679;BME280;51094;53.864;27.676;2023-05-24T08:05:14;99304.16;;;24.09;30.94
64679;BME280;51094;53.864;27.676;2023-05-24T08:07:42;99299.13;;;23.93;31.17
64679;BME280;51094;53.864;27.676;2023-05-24T08:10:09;99225.91;;;23.28;31.09
64679;BME280;51094;53.864;27.676;2023-05-24T08:12:39;99310.56;;;23.65;31.15
64679;BME280;51094;53.864;27.676;2023-05-24T08:15:06;99296.81;;;23.83;31.29
64679;BME280;51094;53.864;27.676;2023-05-24T08:17:34;99304.22;;;24.15;31.43
64679;BME280;51094;53.864;27.676;2023-05-24T08:20:02;99310.06;;;24.32;31.07
64679;BME280;51094;53.864;27.676;2023-05-24T08:22:32;99255.91;;;24.33;31.73
64679;BME280;51094;53.864;27.676;2023-05-24T08:24:59;99082.06;;;23.60;29.65
64679;BME280;51094;53.864;27.676;2023-05-24T08:27:26;99298.63;;;25.34;29.90
64679;BME280;51094;53.864;27.676;2023-05-24T08:29:56;99278.38;;;25.72;28.90
64679;BME280;51094;53.864;27.676;2023-05-24T08:32:22;99271.22;;;25.93;27.74
64679;BME280;51094;53.864;27.676;2023-05-24T08:34:53;99301.50;;;26.25;27.25
64679;BME280;51094;53.864;27.676;2023-05-24T08:37:36;99255.59;;;26.09;29.11
64679;BME280;51094;53.864;27.676;2023-05-24T08:40:03;99296.47;;;26.68;27.04
64679;BME280;51094;53.864;27.676;2023-05-24T08:42:30;99296.84;;;26.78;26.50
64679;BME280;51094;53.864;27.676;2023-05-24T08:45:03;99299.22;;;26.93;27.25
64679;BME280;51094;53.864;27.676;2023-05-24T08:47:31;99297.56;;;26.92;26.61
64679;BME280;51094;53.864;27.676;2023-05-24T08:49:59;99308.19;;;26.60;26.95
64679;BME280;51094;53.864;27.676;2023-05-24T08:52:28;99304.31;;;26.49;27.00
64679;BME280;51094;53.864;27.676;2023-05-24T08:54:55;99244.44;;;26.45;27.68
64679;BME280;51094;53.864;27.676;2023-05-24T08:57:25;99294.00;;;26.66;27.75
64679;BME280;51094;53.864;27.676;2023-05-24T08:59:52;99263.16;;;26.12;28.03
64679;BME280;51094;53.864;27.676;2023-05-24T09:02:23;99297.41;;;26.15;27.89
64679;BME280;51094;53.864;27.676;2023-05-24T09:04:51;99302.34;;;25.72;28.10
64679;BME280;51094;53.864;27.676;2023-05-24T09:07:20;99301.91;;;25.36;28.35
64679;BME280;51094;53.864;27.676;2023-05-24T09:09:59;99220.03;;;24.57;28.72
64679;BME280;51094;53.864;27.676;2023-05-24T09:12:30;99261.34;;;24.60;28.48
64679;BME280;51094;53.864;27.676;2023-05-24T09:15:05;99369.19;;;24.69;28.53
64679;BME280;51094;53.864;27.676;2023-05-24T09:17:37;99288.56;;;24.27;29.43
64679;BME280;51094;53.864;27.676;2023-05-24T09:20:08;99104.63;;;22.72;30.72
64679;BME280;51094;53.864;27.676;2023-05-24T09:22:40;99285.41;;;23.61;31.18
64679;BME280;51094;53.864;27.676;2023-05-24T09:25:11;99316.00;;;23.78;31.00
64679;BME280;51094;53.864;27.676;2023-05-24T09:27:38;99297.97;;;23.52;31.89
64679;BME280;51094;53.864;27.676;2023-05-24T09:30:09;99296.88;;;23.47;32.39
64679;BME280;51094;53.864;27.676;2023-05-24T09:32:36;99241.81;;;23.06;32.54
64679;BME280;51094;53.864;27.676;2023-05-24T09:35:07;99286.09;;;23.27;32.50
64679;BME280;51094;53.864;27.676;2023-05-24T09:37:35;99316.38;;;23.54;32.09
64679;BME280;51094;53.864;27.676;2023-05-24T09:40:05;99341.34;;;23.60;32.51
64679;BME280;51094;53.864;27.676;2023-05-24T09:42:36;99306.53;;;23.69;32.53
64679;BME280;51094;53.864;27.676;2023-05-24T09:45:05;99265.44;;;23.44;32.51
64679;BME280;51094;53.864;27.676;2023-05-24T09:47:40;99304.38;;;23.79;32.11
64679;BME280;51094;53.864;27.676;2023-05-24T09:50:15;99253.81;;;23.45;32.04
64679;BME280;51094;53.864;27.676;2023-05-24T09:52:45;99318.31;;;23.88;30.98
64679;BME280;51094;53.864;27.676;2023-05-24T09:55:13;99319.28;;;23.80;31.94
64679;BME280;51094;53.864;27.676;2023-05-24T09:57:42;99213.91;;;22.89;32.63
64679;BME280;51094;53.864;27.676;2023-05-24T10:00:10;99286.00;;;23.84;31.53
64679;BME280;51094;53.864;27.676;2023-05-24T10:02:43;99310.88;;;24.05;31.38
64679;BME280;51094;53.864;27.676;2023-05-24T10:05:20;99307.22;;;24.06;31.17
64679;BME280;51094;53.864;27.676;2023-05-24T10:07:47;99305.44;;;24.13;30.86
64679;BME280;51094;53.864;27.676;2023-05-24T10:10:14;99291.22;;;24.27;29.69
64679;BME280;51094;53.864;27.676;2023-05-24T10:12:42;99268.00;;;24.42;29.66
64679;BME280;51094;53.864;27.676;2023-05-24T10:15:12;99201.09;;;24.32;29.66
64679;BME280;51094;53.864;27.676;2023-05-24T10:17:39;99234.22;;;24.84;28.31
64679;BME280;51094;53.864;27.676;2023-05-24T10:20:07;99272.78;;;25.14;28.63
64679;BME280;51094;53.864;27.676;2023-05-24T10:22:36;99280.16;;;25.26;28.88
64679;BME280;51094;53.864;27.676;2023-05-24T10:25:07;99321.16;;;25.51;27.62
64679;BME280;51094;53.864;27.676;2023-05-24T10:27:36;99304.56;;;25.36;29.12
64679;BME280;51094;53.864;27.676;2023-05-24T10:32:55;99264.56;;;24.96;29.41
64679;BME280;51094;53.864;27.676;2023-05-24T10:35:23;99334.09;;;25.54;29.62
64679;BME280;51094;53.864;27.676;2023-05-24T10:37:50;99333.25;;;25.53;29.32
64679;BME280;51094;53.864;27.676;2023-05-24T10:40:19;99326.50;;;25.51;29.16
64679;BME280;51094;53.864;27.676;2023-05-24T10:42:47;99324.44;;;25.40;29.58
64679;BME280;51094;53.864;27.676;2023-05-24T10:47:50;99260.44;;;24.94;29.71
64679;BME280;51094;53.864;27.676;2023-05-24T10:50:18;99333.00;;;25.29;29.57
64679;BME280;51094;53.864;27.676;2023-05-24T10:52:49;99301.81;;;25.03;29.45
64679;BME280;51094;53.864;27.676;2023-05-24T10:55:18;99330.56;;;25.34;29.48
64679;BME280;51094;53.864;27.676;2023-05-24T10:57:45;99312.72;;;25.28;28.71
64679;BME280;51094;53.864;27.676;2023-05-24T11:03:06;99338.13;;;25.30;28.65
64679;BME280;51094;53.864;27.676;2023-05-24T11:05:35;99246.63;;;24.57;28.96
64679;BME280;51094;53.864;27.676;2023-05-24T11:10:48;99256.75;;;24.95;28.87
64679;BME280;51094;53.864;27.676;2023-05-24T11:13:17;99316.03;;;25.43;28.87
64679;BME280;51094;53.864;27.676;2023-05-24T11:15:49;99295.34;;;25.45;29.04
64679;BME280;51094;53.864;27.676;2023-05-24T11:18:21;99385.34;;;26.15;28.07
64679;BME280;51094;53.864;27.676;2023-05-24T11:20:49;99191.31;;;25.60;27.55
64679;BME280;51094;53.864;27.676;2023-05-24T11:23:16;99319.84;;;26.72;27.21
64679;BME280;51094;53.864;27.676;2023-05-24T11:25:46;99311.59;;;26.80;26.84
64679;BME280;51094;53.864;27.676;2023-05-24T11:28:13;99251.94;;;27.38;26.73
64679;BME280;51094;53.864;27.676;2023-05-24T11:30:46;99357.31;;;30.28;23.63
64679;BME280;51094;53.864;27.676;2023-05-24T11:33:17;99325.13;;;30.28;23.61
64679;BME280;51094;53.864;27.676;2023-05-24T11:35:45;99331.47;;;29.92;23.76
64679;BME280;51094;53.864;27.676;2023-05-24T11:38:14;99290.66;;;29.55;23.47
64679;BME280;51094;53.864;27.676;2023-05-24T11:40:42;99338.16;;;29.48;23.69
64679;BME280;51094;53.864;27.676;2023-05-24T11:45:44;99255.03;;;28.64;24.65
64679;BME280;51094;53.864;27.676;2023-05-24T11:48:11;99336.25;;;29.06;24.25
64679;BME280;51094;53.864;27.676;2023-05-24T11:50:39;99307.44;;;29.50;23.15
64679;BME280;51094;53.864;27.676;2023-05-24T11:53:18;99329.50;;;31.83;21.57
64679;BME280;51094;53.864;27.676;2023-05-24T11:55:45;99325.81;;;37.95;16.90
64679;BME280;51094;53.864;27.676;2023-05-24T11:58:25;99325.13;;;42.62;13.29
64679;BME280;51094;53.864;27.676;2023-05-24T12:00:55;99323.16;;;45.39;10.28
64679;BME280;51094;53.864;27.676;2023-05-24T12:03:21;99329.28;;;42.51;11.96
64679;BME280;51094;53.864;27.676;2023-05-24T12:05:48;99273.59;;;40.10;13.07
64679;BME280;51094;53.864;27.676;2023-05-24T12:08:15;99183.44;;;37.58;13.90
64679;BME280;51094;53.864;27.676;2023-05-24T12:10:43;99321.41;;;38.52;14.46
64679;BME280;51094;53.864;27.676;2023-05-24T12:13:19;99259.56;;;36.94;14.89
64679;BME280;51094;53.864;27.676;2023-05-24T12:15:49;99272.00;;;38.92;14.61
64679;BME280;51094;53.864;27.676;2023-05-24T12:18:22;99291.59;;;43.22;11.28
64679;BME280;51094;53.864;27.676;2023-05-24T12:20:51;99274.91;;;45.38;9.65
64679;BME280;51094;53.864;27.676;2023-05-24T12:23:19;99262.16;;;47.60;7.78
64679;BME280;51094;53.864;27.676;2023-05-24T12:25:47;99245.25;;;45.11;9.32
64679;BME280;51094;53.864;27.676;2023-05-24T12:28:14;99161.19;;;42.14;10.21
64679;BME280;51094;53.864;27.676;2023-05-24T12:30:41;99231.78;;;43.59;9.97
64679;BME280;51094;53.864;27.676;2023-05-24T12:33:10;99297.44;;;44.31;9.39
64679;BME280;51094;53.864;27.676;2023-05-24T12:35:40;99231.09;;;40.50;11.80
64679;BME280;51094;53.864;27.676;2023-05-24T12:38:11;99278.38;;;38.40;13.04
64679;BME280;51094;53.864;27.676;2023-05-24T12:40:41;99277.53;;;36.00;14.64
64679;BME280;51094;53.864;27.676;2023-05-24T12:43:11;99095.53;;;33.54;16.67
64679;BME280;51094;53.864;27.676;2023-05-24T12:45:40;99266.34;;;33.75;17.23
64679;BME280;51094;53.864;27.676;2023-05-24T12:48:07;99272.03;;;32.88;18.55
64679;BME280;51094;53.864;27.676;2023-05-24T12:50:34;99274.16;;;32.42;18.19
64679;BME280;51094;53.864;27.676;2023-05-24T12:53:01;99202.00;;;31.79;17.90
64679;BME280;51094;53.864;27.676;2023-05-24T12:55:28;99214.31;;;31.58;19.25
64679;BME280;51094;53.864;27.676;2023-05-24T12:57:56;99276.44;;;31.61;18.69
64679;BME280;51094;53.864;27.676;2023-05-24T13:00:25;99277.19;;;31.12;19.47
64679;BME280;51094;53.864;27.676;2023-05-24T13:02:55;99281.22;;;30.45;19.00
64679;BME280;51094;53.864;27.676;2023-05-24T13:05:25;99278.88;;;30.49;18.98
64679;BME280;51094;53.864;27.676;2023-05-24T13:07:54;99261.69;;;31.14;17.94
64679;BME280;51094;53.864;27.676;2023-05-24T13:10:22;99273.03;;;30.75;18.76
64679;BME280;51094;53.864;27.676;2023-05-24T13:12:49;99258.78;;;30.23;19.48
64679;BME280;51094;53.864;27.676;2023-05-24T13:15:16;99283.97;;;30.22;19.39
64679;BME280;51094;53.864;27.676;2023-05-24T13:17:45;99253.41;;;29.76;19.34
64679;BME280;51094;53.864;27.676;2023-05-24T13:20:12;99186.59;;;29.17;20.03
64679;BME280;51094;53.864;27.676;2023-05-24T13:22:39;99256.44;;;29.45;20.54
64679;BME280;51094;53.864;27.676;2023-05-24T13:25:07;99279.13;;;29.42;20.44
64679;BME280;51094;53.864;27.676;2023-05-24T13:27:35;99234.97;;;29.03;21.44
64679;BME280;51094;53.864;27.676;2023-05-24T13:30:02;99277.13;;;29.08;21.99
64679;BME280;51094;53.864;27.676;2023-05-24T13:32:30;99257.31;;;28.79;21.57